Time;durP1;ratioP1;P1;durP2;ratioP2;P2;SDS_P1;SDS_P2;PMS_P1;PMS_P2;Temp;Humidity;BMP_temperature;BMP_pressure;BME280_temperature;BME280_humidity;BME280_pressure;Samples;Min_cycle;Max_cycle;Signal;HPM_P1;HPM_P2
2022/01/08 00:02:22;;;;;;;2.27;1.37;;;4.00;99.90;;;;;;4998654;28;20468;-90
2022/01/08 00:04:48;;;;;;;2.50;1.10;;;4.00;99.90;;;;;;5001231;28;20481;-89
2022/01/08 00:07:15;;;;;;;1.53;1.33;;;4.00;99.90;;;;;;5019349;28;20455;-88
2022/01/08 00:09:42;;;;;;;4.70;2.00;;;3.90;99.90;;;;;;5015143;28;20517;-91
2022/01/08 00:12:09;;;;;;;3.70;1.77;;;3.90;99.90;;;;;;5013626;28;20493;-89
2022/01/08 00:14:38;;;;;;;2.90;2.00;;;3.90;99.90;;;;;;5014298;28;20484;-90
2022/01/08 00:17:05;;;;;;;3.60;2.20;;;3.90;99.90;;;;;;5002182;28;20535;-90
2022/01/08 00:19:31;;;;;;;3.90;2.20;;;3.80;99.90;;;;;;5015180;28;20512;-89
2022/01/08 00:21:58;;;;;;;4.77;3.03;;;3.70;99.90;;;;;;5006787;28;20462;-91
2022/01/08 00:24:25;;;;;;;3.30;2.73;;;3.70;99.90;;;;;;5004395;28;20485;-90
2022/01/08 00:26:52;;;;;;;4.80;3.07;;;3.70;99.90;;;;;;5000449;28;20454;-91
2022/01/08 00:29:18;;;;;;;3.60;3.07;;;3.60;99.90;;;;;;5001086;28;20453;-89
2022/01/08 00:31:47;;;;;;;4.30;3.10;;;3.60;99.90;;;;;;5005160;28;20574;-90
2022/01/08 00:34:14;;;;;;;5.20;3.37;;;3.60;99.90;;;;;;5050594;23;20571;-87
2022/01/08 00:36:40;;;;;;;3.13;2.83;;;3.60;99.90;;;;;;4980198;28;20450;-88
2022/01/08 00:39:07;;;;;;;4.43;3.40;;;3.60;99.90;;;;;;4976460;28;20753;-88
2022/01/08 00:41:34;;;;;;;3.80;2.80;;;3.70;99.90;;;;;;4983721;28;20859;-87
2022/01/08 00:44:01;;;;;;;4.07;3.63;;;3.70;99.90;;;;;;4983626;28;21000;-87
2022/01/08 00:46:27;;;;;;;4.07;3.70;;;3.70;99.90;;;;;;4983586;28;20462;-87
2022/01/08 00:48:55;;;;;;;4.10;3.70;;;3.70;99.90;;;;;;4982748;28;20454;-87
2022/01/08 00:51:22;;;;;;;4.33;3.37;;;3.80;99.90;;;;;;4981519;28;20499;-87
2022/01/08 00:53:49;;;;;;;4.90;4.07;;;3.70;99.90;;;;;;4977853;28;20481;-88
2022/01/08 00:56:15;;;;;;;4.77;4.20;;;3.70;99.90;;;;;;4977417;28;20457;-87
2022/01/08 00:58:42;;;;;;;4.53;4.00;;;3.80;99.90;;;;;;4976481;28;20526;-87
2022/01/08 01:01:09;;;;;;;3.83;3.53;;;3.70;99.90;;;;;;4969271;28;20457;-86
2022/01/08 01:03:36;;;;;;;3.90;3.60;;;3.70;99.90;;;;;;4978123;28;20477;-86
2022/01/08 01:06:06;;;;;;;5.13;3.20;;;3.70;99.90;;;;;;4976159;28;20456;-88
2022/01/08 01:08:32;;;;;;;3.40;3.00;;;3.60;99.90;;;;;;4992080;28;20516;-87
2022/01/08 01:10:59;;;;;;;3.80;2.90;;;3.70;99.90;;;;;;4978827;28;20485;-87
2022/01/08 01:13:26;;;;;;;3.03;2.70;;;3.70;99.90;;;;;;4977614;28;20471;-87
2022/01/08 01:15:53;;;;;;;4.53;3.03;;;3.80;99.90;;;;;;4980193;28;20978;-88
2022/01/08 01:18:19;;;;;;;5.30;3.77;;;3.80;99.90;;;;;;4977100;28;20459;-88
2022/01/08 01:20:46;;;;;;;4.87;3.90;;;3.90;99.90;;;;;;4982798;28;20470;-87
2022/01/08 01:23:19;;;;;;;4.13;3.70;;;3.90;99.90;;;;;;4982372;28;20454;-88
2022/01/08 01:25:50;;;;;;;4.80;3.20;;;3.90;99.90;;;;;;4993778;28;20454;-88
2022/01/08 01:28:31;;;;;;;3.90;3.33;;;3.90;99.90;;;;;;4989704;28;20469;-88
2022/01/08 01:42:16;;;;;;;3.50;3.13;;;3.80;99.90;;;;;;4983006;28;20447;-87
2022/01/08 01:47:33;;;;;;;4.00;3.27;;;3.80;99.90;;;;;;4991786;28;20435;-86
2022/01/08 01:49:59;;;;;;;4.27;2.90;;;3.80;99.90;;;;;;4995326;28;20445;-87
2022/01/08 01:52:26;;;;;;;5.33;2.87;;;3.90;99.90;;;;;;4997152;28;20467;-87
2022/01/08 01:54:54;;;;;;;3.43;2.90;;;3.80;99.90;;;;;;4987883;28;20474;-87
2022/01/08 01:57:21;;;;;;;4.23;2.83;;;3.90;99.90;;;;;;4983632;28;20946;-87
2022/01/08 01:59:48;;;;;;;4.97;3.13;;;3.80;99.90;;;;;;4980916;28;20454;-87
2022/01/08 02:02:15;;;;;;;5.80;3.53;;;3.80;99.90;;;;;;4979973;28;20506;-87
2022/01/08 02:04:42;;;;;;;3.83;3.20;;;3.80;99.90;;;;;;4995937;28;20476;-87
2022/01/08 02:07:09;;;;;;;3.77;2.83;;;3.80;99.90;;;;;;4984805;28;20447;-88
2022/01/08 02:09:39;;;;;;;3.83;3.03;;;3.80;99.90;;;;;;4974879;28;20900;-87
2022/01/08 02:12:10;;;;;;;4.00;2.90;;;3.80;99.90;;;;;;4981122;28;20496;-87
2022/01/08 02:14:38;;;;;;;3.63;3.33;;;3.90;99.90;;;;;;4973462;28;20475;-87
2022/01/08 02:17:05;;;;;;;4.63;2.80;;;3.90;99.90;;;;;;4982575;28;20450;-87
2022/01/08 02:19:32;;;;;;;4.00;2.53;;;3.90;99.90;;;;;;4979891;28;20458;-89
2022/01/08 02:22:04;;;;;;;2.37;2.17;;;4.00;99.90;;;;;;4983195;28;20519;-87
2022/01/08 02:24:30;;;;;;;4.70;2.60;;;4.00;99.90;;;;;;4978680;28;20475;-87
2022/01/08 02:26:57;;;;;;;3.93;2.37;;;4.10;99.90;;;;;;4982933;28;20805;-87
2022/01/08 02:29:25;;;;;;;6.23;2.93;;;4.10;99.90;;;;;;4987103;28;20454;-87
2022/01/08 02:31:57;;;;;;;2.50;2.30;;;4.10;99.90;;;;;;4978574;28;20482;-86
2022/01/08 02:34:25;;;;;;;3.03;2.73;;;4.20;99.90;;;;;;4984840;28;20502;-87
2022/01/08 02:36:52;;;;;;;2.90;2.63;;;4.20;99.90;;;;;;4983644;28;20455;-87
2022/01/08 02:39:21;;;;;;;2.50;2.30;;;4.20;99.90;;;;;;4986932;28;20459;-88
2022/01/08 02:41:53;;;;;;;2.70;2.30;;;4.30;99.90;;;;;;4986764;28;20448;-87
2022/01/08 02:44:20;;;;;;;3.53;2.50;;;4.30;99.90;;;;;;4989751;28;20512;-88
2022/01/08 02:46:47;;;;;;;2.73;2.27;;;4.30;99.90;;;;;;4986260;28;20449;-88
2022/01/08 02:49:14;;;;;;;3.20;2.00;;;4.30;99.90;;;;;;4982245;28;20455;-87
2022/01/08 02:51:40;;;;;;;5.10;2.23;;;4.30;99.90;;;;;;4980204;28;20514;-87
2022/01/08 02:54:10;;;;;;;2.70;2.17;;;4.30;99.90;;;;;;4980946;28;20792;-87
2022/01/08 02:56:39;;;;;;;2.40;2.17;;;4.40;99.90;;;;;;4982732;28;20468;-86
2022/01/08 02:59:06;;;;;;;3.17;2.83;;;4.40;99.90;;;;;;4994157;28;20452;-87
2022/01/08 03:01:34;;;;;;;3.10;2.07;;;4.40;99.90;;;;;;4989407;28;20751;-87
2022/01/08 03:04:00;;;;;;;2.53;2.20;;;4.40;99.90;;;;;;4980530;28;20500;-87
2022/01/08 03:06:27;;;;;;;2.20;2.00;;;4.40;99.90;;;;;;4981426;28;20448;-87
2022/01/08 03:08:54;;;;;;;4.40;2.00;;;4.50;99.90;;;;;;4979694;28;20459;-87
2022/01/08 03:11:21;;;;;;;2.23;1.70;;;4.50;99.90;;;;;;4979778;28;20483;-86
2022/01/08 03:13:49;;;;;;;2.87;2.13;;;4.50;99.90;;;;;;4984485;28;20804;-87
2022/01/08 03:16:16;;;;;;;2.50;1.77;;;4.50;99.90;;;;;;4978254;28;20451;-86
2022/01/08 03:18:43;;;;;;;2.53;1.40;;;4.50;99.90;;;;;;4977012;28;20458;-86
2022/01/08 03:21:15;;;;;;;3.30;1.30;;;4.60;99.90;;;;;;4976560;28;21135;-86
2022/01/08 03:23:48;;;;;;;3.13;1.60;;;4.60;99.90;;;;;;4975983;28;20990;-87
2022/01/08 03:26:16;;;;;;;3.93;1.70;;;4.60;99.90;;;;;;4975641;28;20456;-87
2022/01/08 03:28:42;;;;;;;4.23;1.10;;;4.60;99.90;;;;;;4977678;28;20966;-86
2022/01/08 03:31:11;;;;;;;1.03;0.83;;;4.70;99.90;;;;;;4978536;28;20502;-86
2022/01/08 03:33:37;;;;;;;1.90;1.30;;;4.80;99.90;;;;;;4978326;28;20487;-86
2022/01/08 03:36:05;;;;;;;2.80;1.20;;;4.80;99.90;;;;;;4975236;28;20982;-86
2022/01/08 03:38:32;;;;;;;2.60;1.40;;;4.80;99.90;;;;;;4980836;28;20455;-86
2022/01/08 03:40:59;;;;;;;1.80;0.90;;;4.80;99.90;;;;;;4975359;28;20881;-86
2022/01/08 03:43:26;;;;;;;1.80;1.27;;;4.70;99.90;;;;;;4992294;28;20497;-86
2022/01/08 03:45:53;;;;;;;1.00;0.80;;;4.70;99.90;;;;;;4992342;28;20454;-88
2022/01/08 03:48:28;;;;;;;1.97;1.30;;;4.60;99.90;;;;;;4981887;28;20448;-86
2022/01/08 03:50:56;;;;;;;2.03;1.10;;;4.60;99.90;;;;;;4986305;28;20459;-86
2022/01/08 03:53:23;;;;;;;1.83;1.73;;;4.60;99.90;;;;;;4977374;28;20483;-86
2022/01/08 03:55:50;;;;;;;1.47;1.23;;;4.60;99.90;;;;;;4976534;28;20484;-86
2022/01/08 03:58:18;;;;;;;1.87;1.43;;;4.60;99.90;;;;;;4987583;28;20436;-87
2022/01/08 04:00:45;;;;;;;1.83;1.50;;;4.50;99.90;;;;;;4989908;28;20515;-87
2022/01/08 04:03:12;;;;;;;1.23;1.03;;;4.50;99.90;;;;;;4978820;28;20455;-86
2022/01/08 04:05:40;;;;;;;4.67;2.50;;;4.50;99.90;;;;;;4975896;28;20462;-86
2022/01/08 04:08:09;;;;;;;2.30;1.43;;;4.50;99.90;;;;;;4980632;28;20459;-86
2022/01/08 04:10:36;;;;;;;2.27;1.70;;;4.40;99.90;;;;;;4974752;28;20562;-87
2022/01/08 04:13:09;;;;;;;2.50;2.20;;;4.40;99.90;;;;;;4974996;28;20860;-86
2022/01/08 04:15:39;;;;;;;1.97;1.60;;;4.40;99.90;;;;;;4997859;28;20527;-88
2022/01/08 04:18:06;;;;;;;3.40;1.80;;;4.40;99.90;;;;;;4982413;28;20452;-86
2022/01/08 04:20:43;;;;;;;2.67;2.23;;;4.40;99.90;;;;;;4976212;28;20455;-87
2022/01/08 04:23:13;;;;;;;1.90;1.53;;;4.40;99.90;;;;;;4958608;28;20448;-86
2022/01/08 04:25:40;;;;;;;2.73;2.07;;;4.40;99.90;;;;;;4974942;28;20543;-86
2022/01/08 04:28:07;;;;;;;2.20;2.00;;;4.40;99.90;;;;;;4974814;28;20455;-86
2022/01/08 04:30:34;;;;;;;2.23;2.03;;;4.40;99.90;;;;;;4974529;28;20483;-86
2022/01/08 04:33:00;;;;;;;3.00;2.00;;;4.40;99.90;;;;;;4985563;28;20518;-86
2022/01/08 04:35:27;;;;;;;2.40;2.20;;;4.50;99.90;;;;;;4992283;28;20475;-87
2022/01/08 04:37:54;;;;;;;5.10;3.77;;;4.50;99.90;;;;;;4972683;28;20457;-87
2022/01/08 04:40:22;;;;;;;2.70;2.27;;;4.50;99.90;;;;;;4990299;28;20512;-86
2022/01/08 04:42:49;;;;;;;2.70;2.50;;;4.50;99.90;;;;;;4974877;28;20860;-86
2022/01/08 04:45:15;;;;;;;3.10;2.90;;;4.50;99.90;;;;;;4974602;28;20470;-86
2022/01/08 04:47:43;;;;;;;2.83;2.30;;;4.50;99.90;;;;;;4974175;28;20829;-86
2022/01/08 04:50:12;;;;;;;3.17;2.87;;;4.40;99.90;;;;;;4974498;28;20456;-86
2022/01/08 04:52:38;;;;;;;2.43;2.23;;;4.40;99.90;;;;;;4974638;28;21028;-86
2022/01/08 04:55:06;;;;;;;3.23;2.93;;;4.30;99.90;;;;;;4966720;28;20488;-86
2022/01/08 04:57:34;;;;;;;2.47;2.00;;;4.30;99.90;;;;;;4974020;28;20454;-86
2022/01/08 05:00:01;;;;;;;2.07;1.90;;;4.20;99.90;;;;;;4974645;28;20466;-86
2022/01/08 05:02:27;;;;;;;5.10;2.43;;;4.20;99.90;;;;;;4981470;28;20454;-86
2022/01/08 05:04:54;;;;;;;2.10;1.90;;;4.10;99.90;;;;;;4979773;28;20469;-86
2022/01/08 05:07:20;;;;;;;2.40;2.10;;;4.10;99.90;;;;;;4977805;28;20462;-87
2022/01/08 05:09:47;;;;;;;2.47;2.27;;;4.00;99.90;;;;;;4978252;28;20463;-86
2022/01/08 05:12:14;;;;;;;2.03;1.83;;;4.00;99.90;;;;;;4979779;28;20477;-86
2022/01/08 05:14:43;;;;;;;2.00;1.80;;;3.90;99.90;;;;;;4980198;28;20868;-86
2022/01/08 05:17:10;;;;;;;5.13;2.50;;;3.90;99.90;;;;;;4981286;28;20455;-86
2022/01/08 05:19:42;;;;;;;3.50;2.20;;;3.80;99.90;;;;;;4979418;28;20451;-86
2022/01/08 05:22:17;;;;;;;2.30;2.10;;;3.80;99.90;;;;;;4977941;28;20546;-86
2022/01/08 05:24:43;;;;;;;2.03;1.83;;;3.80;99.90;;;;;;4977759;28;20474;-86
2022/01/08 05:27:15;;;;;;;2.03;1.93;;;3.70;99.90;;;;;;4977490;28;20448;-86
2022/01/08 05:29:44;;;;;;;3.13;2.37;;;3.70;99.90;;;;;;4978228;28;20961;-86
2022/01/08 05:32:16;;;;;;;1.97;1.87;;;3.70;99.90;;;;;;4979078;28;20481;-86
2022/01/08 05:34:43;;;;;;;2.57;2.00;;;3.70;99.90;;;;;;4985140;28;20499;-85
2022/01/08 05:37:10;;;;;;;2.00;1.90;;;3.70;99.90;;;;;;4986149;28;20451;-86
2022/01/08 05:39:37;;;;;;;1.80;1.70;;;3.70;99.90;;;;;;4981086;28;21249;-86
2022/01/08 05:42:04;;;;;;;2.60;2.30;;;3.70;99.90;;;;;;4979740;28;20983;-86
2022/01/08 05:44:31;;;;;;;1.57;1.47;;;3.70;99.90;;;;;;4978801;28;20474;-85
2022/01/08 05:46:59;;;;;;;1.60;1.40;;;3.70;99.90;;;;;;4978231;28;20833;-86
2022/01/08 05:49:26;;;;;;;1.90;1.43;;;3.70;99.90;;;;;;4977955;28;20950;-86
2022/01/08 05:51:53;;;;;;;2.13;1.57;;;3.70;99.90;;;;;;4978532;28;20454;-86
2022/01/08 05:54:19;;;;;;;1.30;1.10;;;3.80;99.90;;;;;;4990673;28;20482;-86
2022/01/08 05:56:46;;;;;;;1.20;1.10;;;3.80;99.90;;;;;;4977906;28;20530;-85
2022/01/08 05:59:13;;;;;;;2.77;1.10;;;3.80;99.90;;;;;;4977463;28;20455;-86
2022/01/08 06:01:39;;;;;;;1.27;1.10;;;3.90;99.90;;;;;;4971480;28;20537;-86
2022/01/08 06:04:07;;;;;;;3.53;1.20;;;3.90;99.90;;;;;;4978481;28;20476;-86
2022/01/08 06:06:35;;;;;;;0.77;0.77;;;3.90;99.90;;;;;;4979018;28;20462;-85
2022/01/08 06:09:02;;;;;;;0.80;0.80;;;3.80;99.90;;;;;;4990122;28;20455;-86
2022/01/08 06:11:29;;;;;;;0.80;0.70;;;3.90;99.90;;;;;;4996507;28;20439;-86
2022/01/08 06:13:55;;;;;;;0.90;0.70;;;3.90;99.90;;;;;;4996863;28;21163;-85
2022/01/08 06:16:22;;;;;;;1.33;0.90;;;3.80;99.90;;;;;;4986279;28;20458;-87
2022/01/08 06:18:49;;;;;;;1.33;0.70;;;3.80;99.90;;;;;;4978753;28;20504;-86
2022/01/08 06:21:17;;;;;;;2.07;1.10;;;3.70;99.90;;;;;;4979395;28;20449;-86
2022/01/08 06:23:43;;;;;;;0.93;0.83;;;3.70;99.90;;;;;;4985582;28;20464;-85
2022/01/08 06:26:10;;;;;;;0.60;0.60;;;3.70;99.90;;;;;;4991802;28;20447;-88
2022/01/08 06:28:37;;;;;;;1.27;0.50;;;3.60;99.90;;;;;;4980959;28;20461;-87
2022/01/08 06:31:03;;;;;;;0.60;0.50;;;3.50;99.90;;;;;;4978135;28;20455;-87
2022/01/08 06:33:30;;;;;;;0.90;0.80;;;3.50;99.90;;;;;;4976247;28;20497;-87
2022/01/08 06:35:57;;;;;;;0.70;0.70;;;3.50;99.90;;;;;;5039082;23;20507;-91
2022/01/08 06:38:25;;;;;;;1.13;0.90;;;3.50;99.90;;;;;;5050109;28;20433;-91
2022/01/08 06:40:52;;;;;;;0.80;0.70;;;3.40;99.90;;;;;;5060056;28;20433;-91
2022/01/08 06:43:18;;;;;;;0.80;0.80;;;3.40;99.90;;;;;;5057623;28;20440;-89
2022/01/08 06:45:45;;;;;;;1.10;0.90;;;3.50;99.90;;;;;;5040598;28;20460;-91
2022/01/08 06:48:12;;;;;;;1.00;0.80;;;3.50;99.90;;;;;;5059718;28;20457;-91
2022/01/08 06:50:39;;;;;;;0.83;0.83;;;3.50;99.90;;;;;;5057035;28;20478;-90
2022/01/08 06:53:06;;;;;;;0.90;0.67;;;3.50;99.90;;;;;;5040818;28;20473;-91
2022/01/08 06:55:35;;;;;;;1.03;0.93;;;3.50;99.90;;;;;;5038726;28;20470;-91
2022/01/08 06:58:02;;;;;;;1.60;1.10;;;3.50;99.90;;;;;;5032910;28;20452;-91
2022/01/08 07:00:29;;;;;;;1.40;1.30;;;3.50;99.90;;;;;;5053669;28;20457;-92
2022/01/08 07:02:56;;;;;;;0.87;0.87;;;3.50;99.90;;;;;;5048755;28;20443;-91
2022/01/08 07:05:23;;;;;;;1.70;0.90;;;3.50;99.90;;;;;;5038464;28;20468;-91
2022/01/08 07:07:51;;;;;;;1.90;1.00;;;3.50;99.90;;;;;;5038710;28;20828;-91
2022/01/08 07:10:18;;;;;;;1.23;1.13;;;3.50;99.90;;;;;;5037146;28;20446;-92
2022/01/08 07:12:47;;;;;;;2.27;1.20;;;3.50;99.90;;;;;;5040302;28;20485;-92
2022/01/08 07:15:14;;;;;;;1.90;1.50;;;3.50;99.90;;;;;;5058618;28;20465;-92
2022/01/08 07:17:41;;;;;;;1.30;1.20;;;3.50;99.90;;;;;;5043017;28;20452;-92
2022/01/08 07:20:10;;;;;;;2.00;1.03;;;3.50;99.90;;;;;;5036700;28;20461;-92
2022/01/08 07:22:37;;;;;;;1.57;1.47;;;3.50;99.90;;;;;;5047708;28;20467;-90
2022/01/08 07:25:05;;;;;;;2.07;1.80;;;3.50;99.90;;;;;;5057544;28;20476;-91
2022/01/08 07:27:32;;;;;;;1.73;1.30;;;3.50;99.90;;;;;;5052957;28;20931;-91
2022/01/08 07:30:01;;;;;;;1.90;1.50;;;3.50;99.90;;;;;;5039669;28;20445;-91
2022/01/08 07:32:28;;;;;;;3.50;1.70;;;3.50;99.90;;;;;;5039603;28;20442;-91
2022/01/08 07:34:55;;;;;;;3.47;2.00;;;3.50;99.90;;;;;;5037157;28;20483;-90
2022/01/08 07:37:22;;;;;;;1.70;1.60;;;3.50;99.90;;;;;;5022659;28;20462;-91
2022/01/08 07:39:49;;;;;;;3.70;1.97;;;3.50;99.90;;;;;;5036120;28;20461;-91
2022/01/08 07:42:17;;;;;;;3.30;2.17;;;3.50;99.90;;;;;;5035379;28;20563;-91
2022/01/08 07:44:43;;;;;;;7.20;2.40;;;3.50;99.90;;;;;;5041299;28;20513;-91
2022/01/08 07:47:12;;;;;;;2.33;2.13;;;3.40;99.90;;;;;;5057497;28;20435;-91
2022/01/08 07:49:40;;;;;;;3.00;2.60;;;3.40;99.90;;;;;;5042084;28;20844;-91
2022/01/08 07:52:07;;;;;;;5.10;3.10;;;3.50;99.90;;;;;;5038370;28;20543;-91
2022/01/08 07:54:35;;;;;;;5.07;3.30;;;3.50;99.90;;;;;;5035576;28;20536;-91
2022/01/08 07:57:02;;;;;;;2.30;2.10;;;3.40;99.90;;;;;;5037261;28;20464;-91
2022/01/08 07:59:29;;;;;;;3.23;2.77;;;3.30;99.90;;;;;;5036167;28;20445;-92
2022/01/08 08:01:56;;;;;;;5.97;2.67;;;3.30;99.90;;;;;;5035084;28;20966;-91
2022/01/08 08:04:24;;;;;;;2.37;2.17;;;3.30;99.90;;;;;;5038337;28;20465;-91
2022/01/08 08:06:51;;;;;;;3.00;2.77;;;3.40;99.90;;;;;;5039418;28;20442;-92
2022/01/08 08:09:18;;;;;;;4.23;3.07;;;3.40;99.90;;;;;;5035209;28;20829;-92
2022/01/08 08:11:45;;;;;;;2.63;2.40;;;3.40;99.90;;;;;;5035057;28;20453;-90
2022/01/08 08:14:12;;;;;;;3.77;3.23;;;3.50;99.90;;;;;;5034791;28;20477;-91
2022/01/08 08:16:40;;;;;;;2.97;2.67;;;3.50;99.90;;;;;;5035376;28;20832;-91
2022/01/08 08:19:07;;;;;;;2.73;2.37;;;3.50;99.90;;;;;;5035793;28;20459;-91
2022/01/08 08:21:35;;;;;;;2.80;2.50;;;3.50;99.90;;;;;;5034820;28;20470;-91
2022/01/08 08:24:05;;;;;;;3.13;2.27;;;3.50;99.90;;;;;;5035268;28;20479;-91
2022/01/08 08:26:33;;;;;;;1.97;1.87;;;3.60;99.90;;;;;;5035519;28;20479;-90
2022/01/08 08:29:00;;;;;;;2.47;2.27;;;3.60;99.90;;;;;;5027335;28;20448;-91
2022/01/08 08:31:27;;;;;;;2.53;2.30;;;3.60;99.90;;;;;;5036132;28;20471;-91
2022/01/08 08:33:55;;;;;;;4.13;2.13;;;3.60;99.90;;;;;;5035339;28;20488;-90
2022/01/08 08:36:22;;;;;;;5.03;2.93;;;3.70;99.90;;;;;;5036993;28;21021;-91
2022/01/08 08:38:50;;;;;;;3.47;2.17;;;3.80;99.90;;;;;;5035333;28;20449;-91
2022/01/08 08:41:17;;;;;;;2.63;2.10;;;3.80;99.90;;;;;;5035206;28;20461;-91
2022/01/08 08:43:44;;;;;;;3.23;2.30;;;3.80;99.90;;;;;;5022758;28;20975;-91
2022/01/08 08:46:11;;;;;;;3.20;2.10;;;3.90;99.90;;;;;;5021566;28;20523;-90
2022/01/08 08:48:38;;;;;;;3.33;2.57;;;3.90;99.90;;;;;;5033891;28;20474;-91
2022/01/08 08:51:05;;;;;;;4.17;2.43;;;4.00;99.90;;;;;;5050910;28;20509;-89
2022/01/08 08:53:32;;;;;;;1.83;1.73;;;4.00;99.90;;;;;;5043822;28;20581;-89
2022/01/08 08:56:01;;;;;;;2.90;2.23;;;4.00;99.90;;;;;;5042950;28;20526;-90
2022/01/08 08:58:28;;;;;;;4.37;2.33;;;4.00;99.90;;;;;;5036269;28;20532;-90
2022/01/08 09:00:56;;;;;;;1.80;1.53;;;4.10;99.90;;;;;;5039447;28;20435;-90
2022/01/08 09:03:25;;;;;;;2.53;1.70;;;4.10;99.90;;;;;;5031163;28;20456;-90
2022/01/08 09:05:52;;;;;;;2.03;1.40;;;4.30;99.90;;;;;;5046083;28;20453;-89
2022/01/08 09:08:19;;;;;;;3.43;1.60;;;4.30;99.90;;;;;;5042065;28;20442;-88
2022/01/08 09:10:45;;;;;;;2.70;1.87;;;4.30;99.90;;;;;;5041527;28;20473;-90
2022/01/08 09:13:14;;;;;;;1.87;1.70;;;4.30;99.90;;;;;;5038210;28;20517;-90
2022/01/08 09:15:42;;;;;;;2.43;2.00;;;4.40;99.90;;;;;;5026574;28;20552;-91
2022/01/08 09:18:24;;;;;;;2.20;1.70;;;4.40;99.90;;;;;;5045171;28;20456;-89
2022/01/08 09:20:51;;;;;;;1.90;1.80;;;4.40;99.90;;;;;;5035870;28;20452;-89
2022/01/08 09:23:24;;;;;;;1.97;1.73;;;4.50;99.90;;;;;;5026453;28;20537;-92
2022/01/08 09:25:50;;;;;;;4.70;2.00;;;4.50;99.90;;;;;;5027144;28;20508;-90
2022/01/08 09:28:21;;;;;;;4.33;1.87;;;4.60;99.90;;;;;;5026180;28;20473;-91
2022/01/08 09:30:48;;;;;;;2.07;1.80;;;4.70;99.90;;;;;;5023770;28;20449;-90
2022/01/08 09:33:15;;;;;;;3.37;1.90;;;4.80;99.90;;;;;;5024106;28;20501;-89
2022/01/08 09:35:42;;;;;;;4.60;2.00;;;5.00;99.90;;;;;;5038802;28;20496;-90
2022/01/08 09:38:12;;;;;;;1.90;1.70;;;5.10;99.90;;;;;;5039992;28;20452;-90
2022/01/08 09:40:38;;;;;;;4.50;2.53;;;5.20;99.90;;;;;;5029716;28;20487;-90
2022/01/08 09:43:06;;;;;;;3.27;2.17;;;5.30;99.90;;;;;;5026241;28;20446;-90
2022/01/08 09:45:35;;;;;;;2.13;1.30;;;5.30;99.90;;;;;;5027331;28;20472;-89
2022/01/08 09:48:02;;;;;;;3.07;1.63;;;5.40;99.90;;;;;;5038617;28;20449;-89
2022/01/08 09:50:32;;;;;;;3.50;1.70;;;5.50;99.90;;;;;;5024601;28;20445;-89
2022/01/08 09:53:00;;;;;;;1.80;1.53;;;5.60;99.90;;;;;;5033178;28;20435;-90
2022/01/08 09:55:27;;;;;;;6.40;2.20;;;5.70;99.90;;;;;;5030039;28;20468;-90
2022/01/08 09:57:54;;;;;;;3.00;1.83;;;6.00;99.90;;;;;;5033929;28;20452;-90
2022/01/08 10:00:23;;;;;;;2.70;1.90;;;6.30;99.90;;;;;;5058446;28;20444;-89
2022/01/08 10:02:51;;;;;;;2.70;2.10;;;6.50;99.90;;;;;;5060694;28;20429;-90
2022/01/08 10:08:43;;;;;;;2.80;2.00;;;7.30;99.90;;;;;;5025881;28;20515;-87
2022/01/08 10:11:24;;;;;;;3.30;2.43;;;7.10;99.90;;;;;;5029979;28;20442;-87
2022/01/08 10:19:30;;;;;;;2.63;2.10;;;6.30;99.90;;;;;;5059478;28;20425;-87
2022/01/08 10:21:58;;;;;;;4.40;2.57;;;6.20;99.90;;;;;;5058915;28;20466;-86
2022/01/08 10:24:27;;;;;;;5.50;2.47;;;5.70;99.70;;;;;;5057315;28;20460;-87
2022/01/08 10:27:02;;;;;;;2.63;2.00;;;5.80;99.90;;;;;;5057581;28;20487;-87
2022/01/08 10:29:29;;;;;;;2.53;2.20;;;5.80;99.90;;;;;;5055703;28;20484;-87
2022/01/08 10:31:56;;;;;;;6.53;3.30;;;5.80;99.90;;;;;;5046652;28;20453;-87
2022/01/08 10:34:25;;;;;;;5.33;2.13;;;5.80;99.90;;;;;;5042192;28;20465;-87
2022/01/08 10:37:01;;;;;;;6.87;2.27;;;5.70;99.90;;;;;;5043653;28;20445;-87
2022/01/08 10:39:31;;;;;;;4.30;2.47;;;5.60;99.90;;;;;;5037395;28;20529;-86
2022/01/08 10:42:00;;;;;;;3.40;2.50;;;5.50;99.90;;;;;;5042788;28;20456;-87
2022/01/08 10:44:28;;;;;;;2.87;1.47;;;5.30;99.90;;;;;;5041835;28;20452;-87
2022/01/08 10:47:03;;;;;;;3.20;2.63;;;5.10;99.90;;;;;;5042623;28;20461;-87
2022/01/08 10:49:32;;;;;;;5.87;2.13;;;4.80;99.90;;;;;;5059525;28;20467;-86
2022/01/08 10:52:03;;;;;;;3.70;1.90;;;4.80;99.90;;;;;;5053151;28;20492;-87
2022/01/08 10:54:33;;;;;;;7.17;2.17;;;4.90;99.90;;;;;;5041464;28;20484;-87
2022/01/08 10:57:02;;;;;;;9.00;2.27;;;5.10;99.90;;;;;;5053667;28;20438;-87
2022/01/08 10:59:30;;;;;;;4.50;2.10;;;5.10;99.90;;;;;;5045154;28;20476;-87
2022/01/08 11:01:59;;;;;;;3.90;2.23;;;4.90;99.90;;;;;;5038068;28;20445;-88
2022/01/08 11:04:42;;;;;;;6.13;2.50;;;4.90;99.90;;;;;;5043566;28;20464;-86
2022/01/08 11:07:12;;;;;;;3.57;1.93;;;5.00;99.90;;;;;;5053192;28;20464;-87
2022/01/08 11:09:42;;;;;;;4.23;1.80;;;5.00;99.40;;;;;;5057539;28;20452;-87
2022/01/08 11:12:11;;;;;;;3.83;2.40;;;5.10;99.30;;;;;;5044560;28;20457;-84
2022/01/08 11:17:37;;;;;;;5.53;1.90;;;5.40;99.20;;;;;;5040563;28;20480;-84
2022/01/08 11:20:11;;;;;;;3.27;1.80;;;5.20;98.80;;;;;;5039877;28;20445;-86
2022/01/08 11:22:42;;;;;;;2.97;1.50;;;5.20;99.00;;;;;;5033238;28;20448;-88
2022/01/08 11:25:11;;;;;;;3.63;1.87;;;7.00;97.60;;;;;;5054828;28;20449;-86
2022/01/08 11:28:04;;;;;;;3.20;1.87;;;9.00;94.50;;;;;;5039272;28;20446;-86
2022/01/08 11:41:19;;;;;;;4.53;2.17;;;10.60;72.60;;;;;;4967277;28;20432;-87
2022/01/08 11:44:18;;;;;;;4.40;2.73;;;8.30;81.00;;;;;;4973310;28;20831;-86
2022/01/08 11:46:59;;;;;;;6.40;3.10;;;7.40;86.40;;;;;;5011602;28;20458;-87
2022/01/08 11:49:48;;;;;;;13.53;4.77;;;7.00;89.90;;;;;;5019607;28;20457;-86
2022/01/08 11:52:31;;;;;;;4.23;2.40;;;6.70;91.40;;;;;;5018781;28;20477;-85
2022/01/08 11:55:19;;;;;;;4.93;3.30;;;7.20;91.70;;;;;;5011423;28;20485;-86
2022/01/08 11:58:14;;;;;;;2.97;1.80;;;9.00;90.10;;;;;;5017091;28;20964;-85
2022/01/08 12:00:54;;;;;;;1.73;1.20;;;11.10;80.20;;;;;;5018000;28;20980;-88
2022/01/08 12:03:22;;;;;;;3.30;2.10;;;9.20;78.50;;;;;;5017573;28;20968;-89
2022/01/08 12:05:49;;;;;;;3.53;2.10;;;8.40;85.50;;;;;;5013012;28;20470;-88
2022/01/08 12:08:18;;;;;;;5.23;2.00;;;8.10;89.10;;;;;;5016231;28;20450;-89
2022/01/08 12:10:58;;;;;;;2.30;1.23;;;8.00;87.20;;;;;;5020142;28;20454;-88
2022/01/08 12:13:46;;;;;;;4.30;2.10;;;7.60;88.40;;;;;;5012210;28;20508;-89
2022/01/08 12:16:36;;;;;;;3.10;1.70;;;7.40;90.60;;;;;;5013144;28;20461;-89
2022/01/08 12:19:04;;;;;;;2.10;1.70;;;7.60;90.20;;;;;;5018205;28;20460;-89
2022/01/08 12:21:33;;;;;;;3.53;1.53;;;7.70;89.60;;;;;;5016274;28;20474;-89
2022/01/08 12:24:27;;;;;;;2.30;2.03;;;7.50;90.30;;;;;;5016211;28;20442;-88
2022/01/08 12:26:54;;;;;;;3.97;1.20;;;8.00;90.70;;;;;;5000870;28;20509;-88
2022/01/08 12:29:34;;;;;;;4.13;1.57;;;8.90;88.80;;;;;;4998777;28;20446;-89
2022/01/08 12:32:21;;;;;;;3.47;1.60;;;8.20;88.10;;;;;;5017179;28;20468;-88
2022/01/08 12:34:50;;;;;;;2.10;1.60;;;7.50;91.20;;;;;;5035838;23;20994;-89
2022/01/08 12:41:18;;;;;;;3.13;1.47;;;7.60;91.80;;;;;;4980383;28;20451;-90
2022/01/08 12:43:45;;;;;;;2.83;1.67;;;8.50;90.80;;;;;;4999492;28;20447;-88
2022/01/08 12:46:41;;;;;;;3.63;2.00;;;8.20;89.60;;;;;;5001885;28;20462;-89
2022/01/08 12:49:17;;;;;;;2.20;1.50;;;7.20;90.60;;;;;;4999545;28;20467;-89
2022/01/08 12:52:31;;;;;;;3.03;1.60;;;6.70;92.10;;;;;;4992425;28;20533;-88
2022/01/08 12:55:16;;;;;;;2.90;2.67;;;6.50;93.40;;;;;;4991931;28;20489;-88
2022/01/08 12:58:24;;;;;;;3.13;1.90;;;6.70;94.10;;;;;;4996574;28;20432;-88
2022/01/08 13:01:20;;;;;;;4.10;2.20;;;7.30;92.70;;;;;;4994976;28;20450;-88
2022/01/08 13:04:23;;;;;;;2.00;1.70;;;7.50;91.80;;;;;;4987583;28;20428;-88
2022/01/08 13:10:14;;;;;;;3.77;1.70;;;8.10;91.40;;;;;;4877018;29;20840;-88
2022/01/08 13:19:34;;;;;;;1.60;1.50;;;7.30;90.30;;;;;;4993783;28;20507;-89
2022/01/08 13:30:48;;;;;;;2.97;2.03;;;6.40;92.50;;;;;;4996892;28;20453;-88
2022/01/08 13:33:27;;;;;;;3.53;2.20;;;6.40;92.80;;;;;;4991736;28;20451;-89
2022/01/08 13:36:05;;;;;;;2.23;1.73;;;6.40;92.90;;;;;;4999433;28;20482;-89
2022/01/08 13:38:33;;;;;;;4.10;1.90;;;6.10;92.60;;;;;;4992373;28;20449;-89
2022/01/08 13:41:08;;;;;;;1.63;1.47;;;6.10;92.80;;;;;;5000938;28;20523;-89
2022/01/08 13:44:00;;;;;;;1.93;1.73;;;6.00;92.70;;;;;;4985043;28;20453;-89
2022/01/08 13:46:49;;;;;;;3.00;2.20;;;5.90;93.00;;;;;;4986728;28;20463;-89
2022/01/08 13:49:26;;;;;;;3.07;2.27;;;5.80;93.10;;;;;;5009011;28;20424;-89
2022/01/08 13:51:58;;;;;;;1.67;1.30;;;5.60;93.00;;;;;;4992156;28;20453;-89
2022/01/08 13:54:34;;;;;;;4.30;2.20;;;5.60;93.30;;;;;;4984678;28;20482;-89
2022/01/08 13:57:11;;;;;;;2.73;1.90;;;5.60;93.50;;;;;;4996653;28;20446;-89
2022/01/08 13:59:38;;;;;;;2.90;2.60;;;5.60;94.10;;;;;;4990935;28;20451;-87
2022/01/08 14:02:05;;;;;;;3.73;1.97;;;5.70;94.30;;;;;;5007549;28;20453;-89
2022/01/08 14:04:32;;;;;;;3.10;2.43;;;5.70;94.10;;;;;;5004722;28;20478;-89
2022/01/08 14:07:46;;;;;;;3.20;2.70;;;5.70;94.30;;;;;;5000551;28;20456;-89
2022/01/08 14:10:16;;;;;;;2.80;2.40;;;5.80;94.10;;;;;;5000188;28;20471;-89
2022/01/08 14:13:05;;;;;;;2.47;1.70;;;5.60;93.80;;;;;;4996761;28;20471;-89